This is the latest recevied weather packets stored in our database for station/object DG0PX-12. If no packets are shown the sender has not sent any weather packets the latest 10 day(s).
| Time | Temp. | Humidity | Pressure | Rain* | Wind** | Luminosity | Snow |
|---|---|---|---|---|---|---|---|
| 1788075894 | 30° C | 34% | 951.5 hPa | - | - | - | - |
| 1788074994 | 30° C | 34% | 951.6 hPa | - | - | - | - |
| 1788074093 | 28.89° C | 42% | 951.3 hPa | - | - | - | - |
| 1788073193 | 29.44° C | 39% | 951.3 hPa | - | - | - | - |
| 1788072293 | 27.22° C | 45% | 951 hPa | - | - | - | - |
| 1788071393 | 25.56° C | 49% | 950.9 hPa | - | - | - | - |
| 1788070493 | 26.67° C | 45% | 950.9 hPa | - | - | - | - |
| 1788069593 | 25° C | 49% | 950.8 hPa | - | - | - | - |
| 1788068693 | 23.89° C | 53% | 950.6 hPa | - | - | - | - |
| 1788067793 | 23.33° C | 52% | 950.5 hPa | - | - | - | - |
| 1788066893 | 23.33° C | 52% | 950.5 hPa | - | - | - | - |
| 1788065993 | 23.33° C | 50% | 950.5 hPa | - | - | - | - |
| 1788065093 | 22.22° C | 56% | 950.2 hPa | - | - | - | - |
| 1788064193 | 23.33° C | 53% | 950.3 hPa | - | - | - | - |
| 1788063293 | 23.89° C | 51% | 950.2 hPa | - | - | - | - |
| 1788062393 | 23.33° C | 52% | 950.4 hPa | - | - | - | - |
| 1788061493 | 22.78° C | 54% | 950.3 hPa | - | - | - | - |
| 1788060593 | 23.33° C | 53% | 950.4 hPa | - | - | - | - |
| 1788059692 | 22.22° C | 55% | 950.4 hPa | - | - | - | - |
| 1788058792 | 22.78° C | 56% | 950.3 hPa | - | - | - | - |
| 1788057892 | 22.78° C | 55% | 950.4 hPa | - | - | - | - |
| 1788056992 | 23.89° C | 50% | 950.3 hPa | - | - | - | - |
| 1788056092 | 23.33° C | 53% | 950.3 hPa | - | - | - | - |
| 1788055192 | 22.78° C | 55% | 950.4 hPa | - | - | - | - |
| 1788054292 | 23.89° C | 50% | 950.5 hPa | - | - | - | - |
* Rain since midnight (hover to see other rain measurements)
** Current wind speed in m/s (hover to see current wind gust speed)